createdAt,value
2023-12-23T00:01:58.856Z,3.09
2023-12-23T00:04:28.936Z,3.21
2023-12-23T00:06:57.370Z,3.27
2023-12-23T00:09:25.920Z,3.32
2023-12-23T00:11:54.507Z,3.22
2023-12-23T00:14:23.084Z,3.17
2023-12-23T00:16:51.691Z,3.28
2023-12-23T00:19:20.370Z,3.32
2023-12-23T00:21:50.409Z,3.37
2023-12-23T00:24:19.054Z,3.31
2023-12-23T00:26:47.601Z,3.33
2023-12-23T00:29:16.154Z,3.15
2023-12-23T00:31:44.696Z,3.29
2023-12-23T00:34:13.260Z,3.20
2023-12-23T00:36:42.223Z,3.25
2023-12-23T00:39:12.218Z,3.27
2023-12-23T00:41:40.686Z,2.97
2023-12-23T00:44:10.638Z,3.13
2023-12-23T00:46:39.221Z,3.17
2023-12-23T00:49:07.838Z,3.11
2023-12-23T00:51:37.168Z,3.15
2023-12-23T00:54:05.769Z,3.21
2023-12-23T00:56:35.712Z,3.24
2023-12-23T00:59:04.320Z,3.30
2023-12-23T01:01:32.881Z,3.25
2023-12-23T01:04:01.521Z,3.02
2023-12-23T01:06:30.197Z,3.14
2023-12-23T01:08:58.635Z,3.04
2023-12-23T01:11:27.216Z,2.49
2023-12-23T01:13:57.299Z,2.72
2023-12-23T01:16:25.944Z,2.97
2023-12-23T01:18:54.527Z,2.90
2023-12-23T01:21:23.030Z,2.97
2023-12-23T01:23:52.514Z,2.84
2023-12-23T01:26:21.112Z,2.85
2023-12-23T01:28:49.639Z,2.87
2023-12-23T01:31:22.342Z,2.91
2023-12-23T01:33:51.010Z,2.88
2023-12-23T01:36:19.554Z,2.93
2023-12-23T01:38:48.172Z,2.99
2023-12-23T01:41:16.714Z,3.06
2023-12-23T01:43:45.216Z,2.84
2023-12-23T01:46:14.597Z,2.93
2023-12-23T01:48:47.034Z,2.88
2023-12-23T01:51:17.211Z,3.02
2023-12-23T01:53:46.173Z,2.85
2023-12-23T01:56:15.003Z,2.76
2023-12-23T01:58:44.147Z,2.58
2023-12-23T02:01:12.913Z,2.50
2023-12-23T02:03:42.560Z,2.45
2023-12-23T02:06:12.648Z,2.54
2023-12-23T02:08:41.231Z,2.58
2023-12-23T02:11:10.340Z,2.57
2023-12-23T02:13:50.442Z,2.62
2023-12-23T02:16:19.253Z,2.67
2023-12-23T02:18:48.525Z,2.52
2023-12-23T02:21:18.681Z,2.51
2023-12-23T02:23:50.019Z,2.67
2023-12-23T02:26:22.093Z,2.42
2023-12-23T02:28:53.667Z,2.35
2023-12-23T02:31:23.309Z,2.32
2023-12-23T02:33:52.137Z,2.52
2023-12-23T02:36:24.423Z,2.67
2023-12-23T02:38:52.992Z,2.76
2023-12-23T02:41:21.547Z,2.58
2023-12-23T02:43:50.067Z,2.72
2023-12-23T02:46:18.573Z,2.55
2023-12-23T02:48:47.303Z,2.55
2023-12-23T02:51:15.922Z,2.60
2023-12-23T02:53:45.882Z,2.73
2023-12-23T02:56:14.450Z,2.69
2023-12-23T02:58:43.090Z,2.78
2023-12-23T03:01:11.625Z,2.84
2023-12-23T03:03:40.217Z,2.29
2023-12-23T03:06:08.949Z,2.45
2023-12-23T03:08:37.854Z,2.62
2023-12-23T03:11:08.019Z,2.42
2023-12-23T03:13:36.640Z,2.38
2023-12-23T03:16:15.785Z,2.49
2023-12-23T03:18:44.344Z,2.34
2023-12-23T03:21:12.882Z,2.42
2023-12-23T03:23:41.421Z,2.39
2023-12-23T03:26:11.406Z,2.41
2023-12-23T03:28:39.998Z,2.39
2023-12-23T03:31:09.201Z,2.32
2023-12-23T03:33:37.742Z,2.19
2023-12-23T03:36:06.762Z,2.22
2023-12-23T03:38:35.322Z,2.22
2023-12-23T03:41:03.930Z,2.24
2023-12-23T03:43:33.918Z,2.24
2023-12-23T03:46:02.469Z,2.35
2023-12-23T03:48:31.089Z,2.22
2023-12-23T03:50:59.613Z,2.24
2023-12-23T03:53:28.237Z,2.29
2023-12-23T03:55:56.722Z,2.38
2023-12-23T03:58:25.299Z,2.40
2023-12-23T04:00:55.584Z,2.49
2023-12-23T04:03:26.509Z,2.40
2023-12-23T04:05:55.310Z,2.42
2023-12-23T04:08:23.938Z,2.17
2023-12-23T04:10:52.675Z,2.23
2023-12-23T04:13:21.282Z,2.00
2023-12-23T04:15:49.772Z,2.31
2023-12-23T04:18:20.027Z,2.23
2023-12-23T04:20:48.774Z,2.21
2023-12-23T04:23:17.330Z,2.18
2023-12-23T04:25:45.958Z,2.29
2023-12-23T04:28:14.520Z,2.57
2023-12-23T04:30:43.086Z,2.73
2023-12-23T04:33:12.246Z,2.87
2023-12-23T04:35:42.378Z,2.88
2023-12-23T04:38:10.986Z,2.81
2023-12-23T04:40:39.660Z,2.11
2023-12-23T04:43:08.224Z,2.32
2023-12-23T04:45:36.910Z,2.82
2023-12-23T04:48:05.890Z,2.60
2023-12-23T04:50:34.523Z,2.72
2023-12-23T04:53:05.141Z,2.80
2023-12-23T04:55:33.688Z,2.87
2023-12-23T04:58:02.220Z,2.60
2023-12-23T05:00:30.761Z,2.12
2023-12-23T05:02:59.550Z,2.12
2023-12-23T05:05:28.171Z,1.47
2023-12-23T05:07:56.846Z,1.76
2023-12-23T05:10:26.876Z,1.28
2023-12-23T05:12:55.420Z,1.16
2023-12-23T05:15:23.932Z,1.20
2023-12-23T05:17:52.543Z,1.39
2023-12-23T05:20:21.233Z,1.21
2023-12-23T05:22:50.091Z,0.90
2023-12-23T05:25:18.798Z,1.05
2023-12-23T05:27:48.774Z,0.86
2023-12-23T05:30:18.230Z,0.91
2023-12-23T05:32:47.315Z,0.89
2023-12-23T05:35:16.128Z,0.88
2023-12-23T05:37:45.027Z,0.78
2023-12-23T05:40:14.460Z,0.63
2023-12-23T05:42:42.973Z,0.45
2023-12-23T05:45:13.230Z,0.21
2023-12-23T05:47:41.925Z,0.54
2023-12-23T05:50:11.621Z,0.53
2023-12-23T05:52:40.295Z,0.79
2023-12-23T05:55:10.382Z,0.81
2023-12-23T05:57:38.884Z,0.64
2023-12-23T06:00:11.732Z,0.37
2023-12-23T06:02:43.160Z,0.59
2023-12-23T06:05:11.851Z,0.72
2023-12-23T06:07:40.380Z,0.66
2023-12-23T06:10:10.218Z,0.91
2023-12-23T06:12:38.704Z,0.87
2023-12-23T06:15:08.169Z,0.99
2023-12-23T06:17:36.733Z,1.03
2023-12-23T06:20:07.690Z,1.47
2023-12-23T06:22:36.435Z,1.36
2023-12-23T06:25:05.701Z,0.63
2023-12-23T06:27:34.236Z,1.75
2023-12-23T06:30:02.810Z,1.75
2023-12-23T06:32:31.461Z,1.67
2023-12-23T06:35:00.089Z,1.94
2023-12-23T06:37:30.148Z,1.67
2023-12-23T06:40:01.190Z,1.76
2023-12-23T06:42:29.705Z,1.69
2023-12-23T06:44:58.237Z,1.92
2023-12-23T06:47:26.867Z,2.21
2023-12-23T06:49:55.478Z,2.13
2023-12-23T06:52:24.399Z,2.28
2023-12-23T06:54:54.369Z,2.23
2023-12-23T06:57:22.773Z,2.66
2023-12-23T06:59:51.286Z,2.79
2023-12-23T07:02:19.986Z,3.04
2023-12-23T07:04:48.762Z,3.30
2023-12-23T07:07:17.284Z,3.62
2023-12-23T07:09:47.175Z,4.12
2023-12-23T07:12:19.132Z,4.00
2023-12-23T07:14:48.258Z,4.36
2023-12-23T07:17:20.556Z,4.16
2023-12-23T07:19:51.179Z,5.09
2023-12-23T07:22:19.682Z,5.44
2023-12-23T07:24:48.281Z,5.73
2023-12-23T07:27:18.421Z,5.63
2023-12-23T07:29:48.028Z,5.98
2023-12-23T07:32:16.844Z,6.67
2023-12-23T07:34:45.425Z,7.28
2023-12-23T07:37:14.128Z,7.32
2023-12-23T07:39:42.686Z,7.48
2023-12-23T07:42:10.214Z,8.12
2023-12-23T07:44:40.208Z,8.35
2023-12-23T07:47:10.806Z,8.64
2023-12-23T07:49:39.671Z,9.02
2023-12-23T07:52:09.403Z,9.07
2023-12-23T07:54:38.013Z,9.64
2023-12-23T07:57:07.200Z,9.75
2023-12-23T07:59:35.949Z,9.85
2023-12-23T08:02:06.194Z,10.39
2023-12-23T08:04:34.736Z,10.64
2023-12-23T08:07:03.653Z,11.02
2023-12-23T08:09:32.197Z,10.55
2023-12-23T08:12:00.808Z,9.95
2023-12-23T08:14:29.343Z,10.55
2023-12-23T08:16:57.812Z,10.96
2023-12-23T08:19:27.906Z,11.68
2023-12-23T08:21:56.410Z,11.85
2023-12-23T08:24:24.958Z,11.36
2023-12-23T08:26:53.523Z,12.15
2023-12-23T08:29:22.119Z,11.68
2023-12-23T08:31:50.751Z,11.74
2023-12-23T08:34:22.339Z,12.92
2023-12-23T08:36:52.541Z,12.25
2023-12-23T08:39:21.283Z,12.60
2023-12-23T08:41:49.842Z,12.88
2023-12-23T08:44:18.995Z,13.25
2023-12-23T08:46:47.637Z,13.40
2023-12-23T08:49:16.337Z,14.13
2023-12-23T08:51:45.151Z,14.35
2023-12-23T08:54:15.147Z,14.69
2023-12-23T08:56:43.710Z,14.13
2023-12-23T08:59:12.305Z,14.38
2023-12-23T09:01:41.116Z,14.45
2023-12-23T09:04:09.728Z,15.17
2023-12-23T09:06:38.413Z,14.98
2023-12-23T09:09:07.031Z,14.97
2023-12-23T09:11:43.886Z,14.66
2023-12-23T09:14:13.566Z,14.98
2023-12-23T09:16:42.174Z,15.20
2023-12-23T09:19:10.900Z,15.59
2023-12-23T09:21:39.512Z,16.16
2023-12-23T09:24:08.293Z,15.58
2023-12-23T09:26:38.281Z,15.61
2023-12-23T09:29:06.897Z,16.58
2023-12-23T09:31:35.770Z,15.67
2023-12-23T09:34:04.445Z,15.87
2023-12-23T09:36:33.179Z,16.73
2023-12-23T09:39:01.721Z,17.62
2023-12-23T09:41:30.389Z,17.77
2023-12-23T09:44:00.689Z,17.31
2023-12-23T09:46:29.636Z,16.94
2023-12-23T09:48:58.287Z,16.29
2023-12-23T09:51:29.488Z,17.24
2023-12-23T09:54:00.688Z,17.24
2023-12-23T09:56:30.452Z,16.81
2023-12-23T09:59:00.414Z,17.89
2023-12-23T10:01:29.053Z,16.85
2023-12-23T10:03:57.525Z,16.71
2023-12-23T10:06:26.607Z,16.15
2023-12-23T10:08:55.329Z,16.02
2023-12-23T10:11:25.930Z,16.61
2023-12-23T10:13:55.046Z,17.52
2023-12-23T10:16:25.126Z,17.50
2023-12-23T10:18:53.785Z,19.06
2023-12-23T10:21:22.472Z,18.14
2023-12-23T10:23:51.064Z,17.74
2023-12-23T10:26:19.639Z,18.27
2023-12-23T10:28:57.022Z,18.60
2023-12-23T10:31:32.212Z,18.72
2023-12-23T10:34:05.039Z,19.25
2023-12-23T10:36:34.060Z,19.08
2023-12-23T10:39:05.094Z,19.00
2023-12-23T10:41:46.141Z,19.21
2023-12-23T10:44:15.403Z,20.05
2023-12-23T10:46:47.186Z,20.33
2023-12-23T10:49:16.851Z,18.44
2023-12-23T10:51:46.624Z,18.93
2023-12-23T10:54:15.888Z,18.93
2023-12-23T10:56:46.605Z,19.05
2023-12-23T10:59:15.297Z,18.99
2023-12-23T11:01:48.049Z,19.32
2023-12-23T11:04:16.612Z,19.80
2023-12-23T11:06:48.946Z,19.85
2023-12-23T11:09:18.933Z,19.47
2023-12-23T11:11:48.999Z,20.06
2023-12-23T11:14:17.638Z,20.07
2023-12-23T11:16:47.664Z,19.68
2023-12-23T11:19:16.290Z,19.99
2023-12-23T11:21:44.926Z,18.99
2023-12-23T11:24:34.890Z,19.88
2023-12-23T11:27:03.596Z,20.06
2023-12-23T11:29:32.154Z,20.33
2023-12-23T11:32:17.110Z,19.57
2023-12-23T11:34:47.615Z,20.30
2023-12-23T11:37:16.219Z,20.14
2023-12-23T11:39:45.872Z,19.79
2023-12-23T11:42:15.354Z,20.13
2023-12-23T11:44:45.576Z,20.45
2023-12-23T11:47:14.518Z,20.37
2023-12-23T11:49:46.444Z,21.01
2023-12-23T11:52:15.243Z,20.52
2023-12-23T11:54:45.619Z,19.18
2023-12-23T11:57:14.384Z,21.05
2023-12-23T11:59:43.702Z,20.82
2023-12-23T12:02:12.763Z,21.60
2023-12-23T12:04:41.902Z,21.60
2023-12-23T12:07:12.156Z,22.72
2023-12-23T12:09:40.876Z,21.75
2023-12-23T12:12:09.946Z,21.40
2023-12-23T12:14:38.474Z,21.06
2023-12-23T12:17:10.176Z,21.58
2023-12-23T12:19:39.083Z,22.24
2023-12-23T12:22:08.091Z,21.75
2023-12-23T12:24:39.165Z,20.59
2023-12-23T12:27:07.741Z,21.24
2023-12-23T12:29:36.333Z,22.01
2023-12-23T12:32:05.123Z,21.33
2023-12-23T12:34:33.627Z,21.34
2023-12-23T12:37:03.816Z,21.01
2023-12-23T12:39:32.683Z,21.66
2023-12-23T12:42:02.645Z,21.65
2023-12-23T12:44:31.260Z,21.34
2023-12-23T12:46:59.951Z,20.71
2023-12-23T12:49:28.489Z,21.63
2023-12-23T12:51:57.056Z,21.46
2023-12-23T12:54:27.146Z,20.49
2023-12-23T12:56:55.853Z,20.74
2023-12-23T12:59:25.871Z,20.99
2023-12-23T13:01:55.198Z,20.50
2023-12-23T13:04:23.792Z,19.77
2023-12-23T13:06:52.414Z,19.46
2023-12-23T13:09:20.906Z,20.18
2023-12-23T13:11:49.440Z,20.40
2023-12-23T13:14:17.980Z,20.68
2023-12-23T13:16:47.968Z,20.19
2023-12-23T13:19:16.638Z,20.11
2023-12-23T13:21:45.307Z,19.73
2023-12-23T13:24:14.745Z,19.26
2023-12-23T13:26:43.292Z,18.74
2023-12-23T13:29:11.896Z,19.44
2023-12-23T13:31:40.409Z,19.72
2023-12-23T13:34:11.955Z,19.88
2023-12-23T13:36:41.085Z,19.54
2023-12-23T13:39:09.848Z,20.36
2023-12-23T13:41:38.488Z,20.46
2023-12-23T13:44:07.558Z,20.82
2023-12-23T13:46:36.310Z,20.91
2023-12-23T13:49:05.036Z,20.78
2023-12-23T13:51:35.378Z,20.16
2023-12-23T13:54:03.957Z,20.58
2023-12-23T13:56:32.549Z,20.34
2023-12-23T13:59:01.203Z,20.24
2023-12-23T14:01:29.702Z,19.74
2023-12-23T14:03:58.159Z,19.25
2023-12-23T14:06:26.808Z,18.28
2023-12-23T14:08:56.856Z,16.66
2023-12-23T14:11:25.557Z,14.95
2023-12-23T14:13:54.214Z,14.06
2023-12-23T14:16:22.711Z,15.01
2023-12-23T14:18:51.321Z,14.65
2023-12-23T14:21:19.810Z,14.58
2023-12-23T14:23:48.819Z,14.76
2023-12-23T14:26:18.929Z,14.02
2023-12-23T14:28:47.523Z,13.52
2023-12-23T14:31:16.202Z,13.83
2023-12-23T14:33:44.877Z,13.77
2023-12-23T14:36:13.525Z,13.57
2023-12-23T14:38:42.245Z,12.47
2023-12-23T14:41:11.119Z,11.48
2023-12-23T14:43:41.026Z,11.83
2023-12-23T14:46:10.340Z,12.14
2023-12-23T14:48:39.240Z,12.54
2023-12-23T14:51:07.978Z,12.28
2023-12-23T14:53:36.658Z,11.82
2023-12-23T14:56:05.673Z,12.46
2023-12-23T14:58:34.270Z,11.88
2023-12-23T15:01:04.293Z,11.41
2023-12-23T15:03:32.783Z,11.80
2023-12-23T15:06:02.344Z,11.92
2023-12-23T15:08:31.067Z,11.93
2023-12-23T15:10:59.573Z,11.60
2023-12-23T15:13:28.215Z,11.50
2023-12-23T15:15:56.830Z,11.46
2023-12-23T15:18:26.775Z,11.40
2023-12-23T15:20:55.458Z,11.62
2023-12-23T15:23:24.099Z,11.80
2023-12-23T15:25:52.672Z,11.86
2023-12-23T15:28:21.381Z,11.80
2023-12-23T15:30:56.372Z,11.99
2023-12-23T15:33:27.088Z,11.92
2023-12-23T15:35:56.737Z,11.91
2023-12-23T15:38:25.362Z,11.25
2023-12-23T15:40:53.962Z,10.57
2023-12-23T15:43:22.564Z,10.71
2023-12-23T15:45:51.173Z,10.81
2023-12-23T15:48:19.965Z,11.24
2023-12-23T15:50:50.978Z,10.98
2023-12-23T15:53:19.863Z,10.33
2023-12-23T15:55:48.507Z,10.61
2023-12-23T15:58:17.160Z,10.63
2023-12-23T16:00:45.824Z,10.99
2023-12-23T16:03:14.530Z,11.00
2023-12-23T16:05:43.141Z,11.07
2023-12-23T16:08:13.104Z,11.19
2023-12-23T16:10:41.742Z,10.45
2023-12-23T16:13:13.795Z,10.51
2023-12-23T16:15:42.389Z,10.66
2023-12-23T16:18:11.117Z,10.00
2023-12-23T16:20:39.819Z,10.19
2023-12-23T16:23:08.456Z,9.97
2023-12-23T16:25:38.474Z,10.54
2023-12-23T16:28:07.306Z,10.58
2023-12-23T16:30:36.822Z,10.31
2023-12-23T16:33:05.666Z,10.52
2023-12-23T16:35:34.364Z,10.47
2023-12-23T16:38:03.188Z,10.37
2023-12-23T16:40:31.921Z,10.51
2023-12-23T16:43:01.866Z,10.30
2023-12-23T16:45:30.619Z,9.93
2023-12-23T16:47:59.423Z,9.87
2023-12-23T16:50:27.963Z,9.31
2023-12-23T16:52:56.840Z,9.63
2023-12-23T16:55:25.559Z,9.67
2023-12-23T16:57:54.197Z,9.36
2023-12-23T17:00:25.182Z,10.08
2023-12-23T17:02:54.082Z,10.07
2023-12-23T17:05:22.875Z,10.19
2023-12-23T17:07:51.660Z,9.84
2023-12-23T17:10:20.401Z,9.88
2023-12-23T17:12:49.333Z,9.95
2023-12-23T17:15:18.171Z,9.80
2023-12-23T17:17:48.231Z,9.62
2023-12-23T17:20:17.005Z,9.28
2023-12-23T17:22:45.620Z,9.34
2023-12-23T17:25:14.197Z,9.41
2023-12-23T17:27:42.854Z,9.28
2023-12-23T17:30:11.913Z,9.37
2023-12-23T17:32:40.699Z,9.34
2023-12-23T17:35:11.882Z,8.78
2023-12-23T17:37:40.503Z,9.07
2023-12-23T17:40:10.287Z,9.33
2023-12-23T17:42:38.917Z,9.16
2023-12-23T17:45:08.401Z,9.19
2023-12-23T17:47:37.385Z,9.29
2023-12-23T17:50:06.985Z,9.21
2023-12-23T17:52:36.995Z,8.74
2023-12-23T17:55:06.263Z,8.90
2023-12-23T17:57:34.863Z,8.55
2023-12-23T18:00:03.513Z,8.54
2023-12-23T18:02:33.151Z,8.75
2023-12-23T18:05:02.078Z,8.30
2023-12-23T18:07:33.517Z,8.30
2023-12-23T18:10:04.653Z,8.06
2023-12-23T18:12:34.388Z,7.84
2023-12-23T18:15:03.085Z,7.64
2023-12-23T18:17:32.042Z,7.93
2023-12-23T18:20:00.788Z,8.06
2023-12-23T18:22:29.332Z,8.10
2023-12-23T18:24:58.059Z,8.21
2023-12-23T18:27:27.990Z,7.69
2023-12-23T18:29:56.479Z,7.74
2023-12-23T18:32:25.114Z,7.89
2023-12-23T18:34:53.770Z,8.12
2023-12-23T18:37:22.341Z,8.16
2023-12-23T18:39:50.846Z,7.94
2023-12-23T18:42:19.383Z,8.04
2023-12-23T18:44:49.433Z,8.01
2023-12-23T18:47:17.989Z,7.99
2023-12-23T18:49:47.266Z,8.16
2023-12-23T18:52:15.807Z,8.22
2023-12-23T18:54:44.275Z,7.61
2023-12-23T18:57:12.896Z,7.52
2023-12-23T18:59:41.521Z,7.54
2023-12-23T19:02:12.905Z,7.57
2023-12-23T19:04:41.595Z,7.63
2023-12-23T19:07:10.373Z,7.38
2023-12-23T19:09:38.886Z,7.82
2023-12-23T19:12:07.623Z,7.72
2023-12-23T19:14:36.221Z,7.71
2023-12-23T19:17:05.042Z,7.98
2023-12-23T19:19:35.077Z,7.79
2023-12-23T19:22:03.735Z,7.75
2023-12-23T19:24:32.257Z,7.88
2023-12-23T19:27:00.945Z,7.93
2023-12-23T19:29:29.553Z,8.21
2023-12-23T19:31:58.265Z,8.23
2023-12-23T19:34:26.907Z,8.15
2023-12-23T19:36:56.928Z,8.25
2023-12-23T19:39:25.438Z,8.20
2023-12-23T19:41:54.549Z,8.34
2023-12-23T19:44:25.743Z,8.27
2023-12-23T19:46:54.362Z,8.22
2023-12-23T19:49:22.845Z,8.23
2023-12-23T19:51:51.465Z,8.28
2023-12-23T19:54:21.433Z,8.26
2023-12-23T19:56:50.792Z,8.21
2023-12-23T19:59:19.553Z,7.93
2023-12-23T20:01:48.991Z,7.68
2023-12-23T20:04:17.562Z,7.51
2023-12-23T20:06:46.193Z,7.75
2023-12-23T20:09:16.415Z,7.23
2023-12-23T20:11:46.329Z,6.54
2023-12-23T20:14:14.826Z,6.25
2023-12-23T20:16:43.488Z,6.18
2023-12-23T20:19:14.009Z,5.83
2023-12-23T20:21:42.669Z,6.53
2023-12-23T20:24:12.122Z,6.91
2023-12-23T20:26:40.685Z,6.69
2023-12-23T20:29:10.655Z,6.88
2023-12-23T20:31:39.416Z,6.80
2023-12-23T20:34:08.367Z,6.76
2023-12-23T20:36:40.160Z,6.88
2023-12-23T20:39:08.866Z,7.01
2023-12-23T20:41:40.540Z,7.02
2023-12-23T20:44:13.990Z,7.16
2023-12-23T20:46:42.572Z,7.24
2023-12-23T20:49:11.804Z,7.05
2023-12-23T20:51:41.313Z,7.11
2023-12-23T20:54:09.912Z,7.07
2023-12-23T20:56:38.447Z,6.93
2023-12-23T20:59:08.023Z,6.71
2023-12-23T21:01:38.131Z,6.96
2023-12-23T21:04:08.693Z,7.11
2023-12-23T21:06:37.352Z,6.83
2023-12-23T21:09:08.999Z,7.04
2023-12-23T21:11:37.625Z,7.15
2023-12-23T21:14:06.204Z,7.19
2023-12-23T21:16:34.718Z,7.09
2023-12-23T21:19:04.926Z,7.06
2023-12-23T21:21:33.449Z,7.08
2023-12-23T21:24:05.098Z,7.12
2023-12-23T21:26:33.717Z,6.78
2023-12-23T21:29:02.294Z,6.89
2023-12-23T21:31:30.808Z,6.92
2023-12-23T21:33:59.467Z,6.77
2023-12-23T21:36:33.054Z,6.91
2023-12-23T21:39:01.627Z,6.91
2023-12-23T21:41:30.206Z,6.93
2023-12-23T21:43:58.909Z,6.43
2023-12-23T21:46:29.036Z,6.27
2023-12-23T21:48:59.059Z,6.72
2023-12-23T21:51:29.233Z,6.87
2023-12-23T21:53:57.819Z,6.96
2023-12-23T21:56:26.391Z,6.92
2023-12-23T21:58:55.114Z,6.85
2023-12-23T22:01:23.592Z,6.94
2023-12-23T22:03:52.210Z,6.97
2023-12-23T22:06:21.589Z,6.99
2023-12-23T22:08:52.158Z,7.10
2023-12-23T22:11:19.687Z,7.08
2023-12-23T22:13:48.219Z,7.17
2023-12-23T22:16:16.982Z,6.87
2023-12-23T22:18:46.010Z,6.96
2023-12-23T22:21:14.550Z,7.07
2023-12-23T22:23:43.281Z,7.06
2023-12-23T22:26:14.497Z,6.90
2023-12-23T22:28:43.894Z,6.80
2023-12-23T22:31:12.486Z,6.98
2023-12-23T22:33:41.184Z,6.73
2023-12-23T22:36:11.792Z,6.93
2023-12-23T22:38:40.904Z,6.84
2023-12-23T22:41:11.749Z,6.79
2023-12-23T22:43:41.754Z,7.06
2023-12-23T22:46:10.304Z,6.80
2023-12-23T22:48:39.027Z,6.76
2023-12-23T22:51:08.488Z,7.03
2023-12-23T22:53:37.196Z,6.93
2023-12-23T22:56:06.340Z,7.00
2023-12-23T22:58:35.443Z,7.12
2023-12-23T23:01:05.841Z,7.18
2023-12-23T23:03:34.489Z,7.23
2023-12-23T23:06:03.106Z,7.23
2023-12-23T23:08:31.814Z,7.20
2023-12-23T23:11:00.456Z,7.19
2023-12-23T23:13:29.074Z,7.00
2023-12-23T23:15:58.684Z,6.99
2023-12-23T23:18:28.788Z,6.84
2023-12-23T23:20:57.401Z,6.87
2023-12-23T23:23:26.133Z,6.92
2023-12-23T23:25:54.747Z,6.48
2023-12-23T23:28:23.371Z,6.63
2023-12-23T23:30:51.897Z,6.90
2023-12-23T23:33:20.856Z,6.57
2023-12-23T23:35:51.384Z,6.63
2023-12-23T23:38:19.975Z,6.46
2023-12-23T23:40:51.770Z,6.08
2023-12-23T23:43:21.037Z,6.32
2023-12-23T23:45:49.609Z,6.23
2023-12-23T23:48:18.144Z,6.39
2023-12-23T23:50:46.682Z,6.00
2023-12-23T23:53:16.741Z,6.32
2023-12-23T23:55:45.553Z,6.32
2023-12-23T23:58:14.165Z,6.45
